Key Field
KMEI : now visible

Airfield :











YOU CAN JOIN US ON...

 
LOGIN :

Register | Disclaimer

   EN    FR    IT 

 









Legend :    VFR   Marginal VFR   IFR   Intensive IFR   Very Intensive IFR
Visi :
Ceiling :
>= 8 km
>= 3000ft
5 to 8 km
1000 to 3000 ft
1500m to 5 km
500 to 1000 ft
800 to 1500m
200 to 500 ft
< 800m
< 200 ft
Symbols :   Thunderstorms  Fog  Heavy snow  Heavy precipitations  Wind > 20 kt






- Airport Elevation : 297 ft
- IATA code : MEI


KMEI - Key Field

CURRENT METAR :
  • 241205Z 00000KT 6SM RA BR BKN008 BKN055 OVC100 21/19 A2997 RMK AO2 P0001 T02060194

EXPIRED METARs :
  • 241158Z 01003KT 7SM RA SCT010 BKN055 OVC120 21/19 A2997 RMK AO2 SLP145 P0020 60118 70134 T02060194 10222 20206 58002
  • 241058Z 00000KT 8SM -RA BKN009 OVC028 21/19 A2998 RMK AO2 LTG DSNT SE SLP147 P0027 T02060194
  • 241053Z 02004KT 10SM -RA BKN009 BKN028 OVC070 21/19 A2997 RMK AO2 LTG DSNT SE P0027
  • 241046Z AUTO 03004KT 9SM RA SCT009 BKN026 OVC070 21/19 A2997 RMK AO2 LTG DSNT SE P0027 T02060194
  • 241025Z AUTO 03006KT 5SM RA BR FEW006 BKN055 OVC070 21/19 A2996 RMK AO2 P0022 T02060194
  • 241009Z AUTO 03008KT 3SM RA BR SCT006 BKN020 OVC042 21/19 A2996 RMK AO2 LTG DSNT NE AND S P0015 T02060194
  • 240958Z AUTO 30003KT 1 1/4SM R01/4000VP6000FT +RA BR BKN006 BKN010 OVC022 21/19 A2997 RMK AO2 LTG DSNT NE SLP145 P0020 T02060194
  • 240931Z AUTO 06007KT 10SM -RA BKN005 BKN028 OVC034 21/19 A2996 RMK AO2 LTG DSNT NE AND E P0002 T02060194
  • 240921Z AUTO 05007KT 10SM -RA SCT006 BKN028 OVC034 21/19 A2996 RMK AO2 LTG DSNT NE AND E P0002 T02060194

TAF KMEI
Valid from the 24 at 12:00 until the 25 at 12:00 UTC


241208Z 2412/2512 35005KT 6SM RA BR BKN008 OVC035
FM241500 35005KT P6SM OVC007
FM250500 35003KT 4SM -DZ OVC004
KZME FIR / North America



MET'MAP, your aeronautical weather chart ! - Copyright ORBIFLY December 2007 - Disclaimer

ORBIFLY MET'MAP TEAM :

Programming & Development : Alexandra Zaïnal
Concept & original design : Baudouin d'Aumeries
Assistance for programming : Marc-Olivier Méhu
Technical & hardware support : Manuel Goepfert

Contact : metmap@orbifly.com




SOURCES & CREDITS :

   NOAA       Earth
Advisory